createdAt,value
2023-01-10T00:00:34.070Z,12.40
2023-01-10T00:03:02.336Z,12.77
2023-01-10T00:05:29.902Z,9.53
2023-01-10T00:07:57.602Z,10.87
2023-01-10T00:10:25.606Z,9.50
2023-01-10T00:12:53.204Z,10.27
2023-01-10T00:15:20.718Z,7.97
2023-01-10T00:17:48.239Z,14.63
2023-01-10T00:20:15.977Z,13.53
2023-01-10T00:22:43.537Z,13.10
2023-01-10T00:25:11.020Z,10.87
2023-01-10T00:27:38.594Z,14.97
2023-01-10T00:30:06.503Z,10.20
2023-01-10T00:32:34.008Z,8.63
2023-01-10T00:35:01.514Z,11.63
2023-01-10T00:37:29.089Z,8.50
2023-01-10T00:39:56.575Z,11.30
2023-01-10T00:42:24.207Z,6.37
2023-01-10T00:44:51.750Z,10.40
2023-01-10T00:47:19.260Z,21.43
2023-01-10T00:49:46.891Z,7.73
2023-01-10T00:52:14.442Z,10.27
2023-01-10T00:54:42.328Z,6.70
2023-01-10T00:57:10.085Z,9.80
2023-01-10T00:59:37.554Z,11.37
2023-01-10T01:02:05.157Z,8.80
2023-01-10T01:04:32.840Z,9.73
2023-01-10T01:07:03.403Z,8.77
2023-01-10T01:09:31.091Z,12.40
2023-01-10T01:11:58.646Z,8.30
2023-01-10T01:14:26.472Z,11.17
2023-01-10T01:16:53.969Z,11.87
2023-01-10T01:19:21.563Z,11.83
2023-01-10T01:21:49.030Z,10.83
2023-01-10T01:24:16.579Z,11.53
2023-01-10T01:26:44.074Z,8.37
2023-01-10T01:29:11.565Z,10.30
2023-01-10T01:31:39.054Z,8.27
2023-01-10T01:34:06.823Z,10.00
2023-01-10T01:36:34.361Z,11.30
2023-01-10T01:39:01.923Z,11.30
2023-01-10T01:41:29.456Z,13.33
2023-01-10T01:44:01.001Z,15.87
2023-01-10T01:46:29.108Z,9.57
2023-01-10T01:48:56.779Z,8.27
2023-01-10T01:51:27.559Z,12.10
2023-01-10T01:53:56.949Z,9.77
2023-01-10T01:56:30.693Z,9.23
2023-01-10T01:59:01.591Z,11.00
2023-01-10T02:01:30.822Z,17.93
2023-01-10T02:04:02.112Z,11.20
2023-01-10T02:06:29.840Z,10.47
2023-01-10T02:09:04.000Z,8.70
2023-01-10T02:11:31.752Z,12.83
2023-01-10T02:14:00.001Z,12.87
2023-01-10T02:16:30.365Z,12.07
2023-01-10T02:18:58.112Z,12.20
2023-01-10T02:21:34.777Z,8.47
2023-01-10T02:24:05.360Z,13.73
2023-01-10T02:26:51.779Z,9.00
2023-01-10T02:29:25.200Z,7.73
2023-01-10T02:31:55.846Z,10.60
2023-01-10T02:34:29.303Z,13.10
2023-01-10T02:37:05.811Z,14.87
2023-01-10T02:39:33.404Z,9.50
2023-01-10T02:42:11.815Z,13.07
2023-01-10T02:44:57.291Z,10.23
2023-01-10T02:47:25.030Z,10.97
2023-01-10T02:49:52.887Z,12.10
2023-01-10T02:52:23.542Z,12.23
2023-01-10T02:54:52.706Z,10.70
2023-01-10T02:57:26.215Z,15.73
2023-01-10T03:00:12.685Z,9.20
2023-01-10T03:02:56.495Z,9.00
2023-01-10T03:05:49.754Z,11.07
2023-01-10T03:08:29.449Z,8.63
2023-01-10T03:10:59.879Z,10.77
2023-01-10T03:13:42.232Z,13.30
2023-01-10T03:16:12.842Z,13.27
2023-01-10T03:18:45.898Z,11.03
2023-01-10T03:21:13.741Z,10.20
2023-01-10T03:23:41.404Z,12.37
2023-01-10T03:26:10.421Z,10.13
2023-01-10T03:28:52.164Z,11.00
2023-01-10T03:31:23.743Z,11.10
2023-01-10T03:33:51.541Z,7.57
2023-01-10T03:36:27.930Z,8.03
2023-01-10T03:38:55.497Z,8.93
2023-01-10T03:41:34.979Z,13.43
2023-01-10T03:44:02.626Z,11.77
2023-01-10T03:46:37.798Z,8.60
2023-01-10T03:49:06.851Z,16.17
2023-01-10T03:51:34.961Z,8.60
2023-01-10T03:54:02.990Z,10.57
2023-01-10T03:56:30.541Z,10.37
2023-01-10T03:58:58.464Z,13.23
2023-01-10T04:01:26.092Z,16.47
2023-01-10T04:03:53.751Z,11.37
2023-01-10T04:06:21.299Z,14.33
2023-01-10T04:08:48.870Z,10.60
2023-01-10T04:11:16.412Z,15.77
2023-01-10T04:13:44.029Z,17.47
2023-01-10T04:16:11.551Z,9.93
2023-01-10T04:18:39.233Z,12.57
2023-01-10T04:21:06.883Z,11.27
2023-01-10T04:23:34.419Z,10.10
2023-01-10T04:26:01.893Z,12.70
2023-01-10T04:28:29.470Z,11.60
2023-01-10T04:30:59.806Z,17.53
2023-01-10T04:33:27.395Z,12.57
2023-01-10T04:35:55.246Z,12.87
2023-01-10T04:38:22.744Z,12.43
2023-01-10T04:40:56.797Z,15.73
2023-01-10T04:43:27.345Z,13.83
2023-01-10T04:45:54.984Z,13.30
2023-01-10T04:48:22.563Z,14.07
2023-01-10T04:50:54.044Z,12.00
2023-01-10T04:53:21.978Z,11.07
2023-01-10T04:55:49.764Z,14.80
2023-01-10T04:58:17.311Z,11.00
2023-01-10T05:00:44.893Z,13.73
2023-01-10T05:03:12.606Z,11.67
2023-01-10T05:05:40.220Z,17.93
2023-01-10T05:08:07.761Z,17.50
2023-01-10T05:10:35.289Z,18.70
2023-01-10T05:13:02.932Z,15.20
2023-01-10T05:15:30.458Z,15.17
2023-01-10T05:17:58.677Z,20.97
2023-01-10T05:20:26.223Z,8.63
2023-01-10T05:22:53.787Z,12.87
2023-01-10T05:25:21.268Z,16.80
2023-01-10T05:27:48.864Z,18.30
2023-01-10T05:30:16.575Z,18.53
2023-01-10T05:32:44.151Z,18.17
2023-01-10T05:35:11.756Z,9.67
2023-01-10T05:37:39.295Z,13.53
2023-01-10T05:40:07.236Z,15.93
2023-01-10T05:42:34.846Z,10.83
2023-01-10T05:45:02.420Z,14.90
2023-01-10T05:47:29.987Z,20.40
2023-01-10T05:49:57.563Z,19.23
2023-01-10T05:52:25.152Z,16.90
2023-01-10T05:54:52.656Z,16.20
2023-01-10T05:57:20.264Z,23.30
2023-01-10T05:59:47.861Z,20.80
2023-01-10T06:02:15.599Z,15.73
2023-01-10T06:04:43.409Z,17.17
2023-01-10T06:07:10.979Z,18.33
2023-01-10T06:09:38.515Z,16.33
2023-01-10T06:12:06.195Z,19.30
2023-01-10T06:14:33.752Z,19.70
2023-01-10T06:17:01.275Z,16.37
2023-01-10T06:19:28.767Z,22.07
2023-01-10T06:21:56.360Z,15.20
2023-01-10T06:24:23.841Z,13.70
2023-01-10T06:26:51.412Z,20.60
2023-01-10T06:29:18.885Z,14.53
2023-01-10T06:31:46.529Z,15.90
2023-01-10T06:34:14.093Z,13.50
2023-01-10T06:36:41.680Z,17.63
2023-01-10T06:39:09.300Z,23.90
2023-01-10T06:41:36.828Z,16.07
2023-01-10T06:44:07.367Z,21.93
2023-01-10T06:46:34.916Z,16.43
2023-01-10T06:49:02.766Z,26.67
2023-01-10T06:51:30.414Z,22.17
2023-01-10T06:53:57.979Z,27.93
2023-01-10T06:56:25.610Z,17.57
2023-01-10T06:58:53.129Z,17.63
2023-01-10T07:01:21.848Z,26.13
2023-01-10T07:03:49.602Z,15.97
2023-01-10T07:06:17.224Z,18.47
2023-01-10T07:08:45.671Z,20.67
2023-01-10T07:11:14.162Z,22.73
2023-01-10T07:13:41.820Z,19.13
2023-01-10T07:16:10.644Z,20.40
2023-01-10T07:18:39.942Z,15.30
2023-01-10T07:21:07.903Z,16.23
2023-01-10T07:23:35.482Z,19.37
2023-01-10T07:26:04.156Z,21.97
2023-01-10T07:28:32.043Z,22.20
2023-01-10T07:31:00.402Z,20.40
2023-01-10T07:33:28.519Z,27.43
2023-01-10T07:35:56.456Z,26.87
2023-01-10T07:38:24.276Z,27.00
2023-01-10T07:40:52.310Z,21.90
2023-01-10T07:43:19.844Z,25.23
2023-01-10T07:45:48.046Z,18.57
2023-01-10T07:48:15.682Z,26.30
2023-01-10T07:50:43.389Z,23.30
2023-01-10T07:53:10.973Z,26.33
2023-01-10T07:55:38.699Z,18.60
2023-01-10T07:58:06.894Z,25.43
2023-01-10T08:00:40.455Z,24.23
2023-01-10T08:03:08.150Z,18.83
2023-01-10T08:05:35.878Z,17.07
2023-01-10T08:08:09.808Z,20.60
2023-01-10T08:10:38.135Z,28.10
2023-01-10T08:13:17.800Z,19.27
2023-01-10T08:15:46.902Z,26.27
2023-01-10T08:18:14.600Z,25.77
2023-01-10T08:20:42.208Z,22.83
2023-01-10T08:23:10.095Z,24.33
2023-01-10T08:25:39.506Z,16.67
2023-01-10T08:28:07.825Z,19.90
2023-01-10T08:30:35.467Z,17.20
2023-01-10T08:33:05.605Z,21.63
2023-01-10T08:35:37.300Z,18.17
2023-01-10T08:38:05.002Z,19.33
2023-01-10T08:40:35.253Z,28.20
2023-01-10T08:43:04.652Z,20.67
2023-01-10T08:45:32.354Z,28.83
2023-01-10T08:48:00.157Z,18.03
2023-01-10T08:50:28.076Z,17.03
2023-01-10T08:52:58.313Z,17.27
2023-01-10T08:55:26.404Z,23.43
2023-01-10T08:57:53.924Z,20.70
2023-01-10T09:00:22.206Z,19.70
2023-01-10T09:02:49.892Z,15.20
2023-01-10T09:05:26.968Z,16.77
2023-01-10T09:07:58.732Z,20.17
2023-01-10T09:10:26.440Z,23.70
2023-01-10T09:12:54.043Z,20.93
2023-01-10T09:15:22.351Z,34.30
2023-01-10T09:17:49.949Z,13.23
2023-01-10T09:49:23.000Z,20.00
2023-01-10T09:51:51.741Z,21.83
2023-01-10T09:54:24.161Z,20.07
2023-01-10T09:56:52.233Z,18.97
2023-01-10T09:59:21.639Z,22.13
2023-01-10T10:01:51.849Z,16.13
2023-01-10T10:04:35.671Z,15.47
2023-01-10T10:07:04.037Z,19.13
2023-01-10T10:09:36.043Z,14.00
2023-01-10T10:12:03.831Z,13.43
2023-01-10T10:14:31.569Z,23.67
2023-01-10T10:17:02.386Z,20.00
2023-01-10T10:19:30.149Z,20.63
2023-01-10T10:22:18.432Z,19.03
2023-01-10T10:28:33.463Z,17.07
2023-01-10T10:31:01.951Z,16.63
2023-01-10T10:33:40.440Z,15.00
2023-01-10T10:36:17.335Z,13.00
2023-01-10T10:38:47.292Z,18.33
2023-01-10T10:41:23.608Z,16.33
2023-01-10T10:43:51.778Z,18.27
2023-01-10T10:46:19.390Z,14.80
2023-01-10T10:48:57.218Z,21.73
2023-01-10T10:51:29.831Z,17.17
2023-01-10T11:08:21.405Z,14.07
2023-01-10T11:10:51.059Z,16.73
2023-01-10T11:13:27.646Z,16.03
2023-01-10T11:19:30.994Z,16.37
2023-01-10T11:22:00.835Z,15.43
2023-01-10T11:28:04.133Z,16.50
2023-01-10T11:34:02.845Z,12.60
2023-01-10T11:36:50.372Z,15.30
2023-01-10T11:39:18.166Z,19.43
2023-01-10T11:41:45.847Z,14.27
2023-01-10T11:44:16.616Z,19.60
2023-01-10T11:46:45.448Z,18.43
2023-01-10T11:49:14.754Z,20.57
2023-01-10T11:51:47.637Z,14.70
2023-01-10T11:54:22.573Z,12.20
2023-01-10T11:56:58.056Z,16.20
2023-01-10T11:59:27.227Z,13.97
2023-01-10T12:01:59.839Z,13.30
2023-01-10T12:04:29.636Z,15.07
2023-01-10T12:07:02.005Z,13.53
2023-01-10T12:09:43.431Z,15.90
2023-01-10T12:12:11.083Z,13.03
2023-01-10T12:14:38.631Z,16.23
2023-01-10T12:17:07.174Z,13.50
2023-01-10T12:19:34.804Z,17.77
2023-01-10T12:22:05.010Z,13.30
2023-01-10T12:24:35.414Z,18.40
2023-01-10T12:27:04.120Z,18.77
2023-01-10T12:29:36.228Z,17.07
2023-01-10T12:32:05.551Z,14.77
2023-01-10T12:34:58.373Z,14.50
2023-01-10T12:37:32.239Z,16.70
2023-01-10T12:40:20.083Z,15.80
2023-01-10T12:42:58.123Z,11.93
2023-01-10T12:45:27.535Z,17.30
2023-01-10T12:48:07.375Z,17.27
2023-01-10T12:50:40.048Z,14.10
2023-01-10T12:53:11.154Z,11.33
2023-01-10T12:55:40.626Z,15.87
2023-01-10T12:58:13.147Z,11.63
2023-01-10T13:00:48.754Z,11.87
2023-01-10T13:03:20.060Z,16.87
2023-01-10T13:05:48.393Z,16.97
2023-01-10T13:08:21.701Z,15.40
2023-01-10T13:10:51.575Z,11.17
2023-01-10T13:13:27.314Z,14.90
2023-01-10T13:16:03.539Z,19.80
2023-01-10T13:18:32.142Z,9.13
2023-01-10T13:21:08.642Z,9.70
2023-01-10T13:23:56.474Z,11.73
2023-01-10T13:26:24.061Z,18.27
2023-01-10T13:28:54.453Z,16.27
2023-01-10T13:31:27.083Z,12.63
2023-01-10T13:34:08.713Z,13.70
2023-01-10T13:36:38.448Z,14.87
2023-01-10T13:39:19.497Z,14.30
2023-01-10T13:42:08.453Z,9.97
2023-01-10T13:44:57.512Z,13.37
2023-01-10T13:47:43.398Z,12.73
2023-01-10T13:50:23.433Z,11.20
2023-01-10T13:52:57.574Z,16.53
2023-01-10T13:55:28.601Z,13.73
2023-01-10T13:57:57.625Z,12.50
2023-01-10T14:00:26.852Z,11.07
2023-01-10T14:02:54.524Z,10.17
2023-01-10T14:05:22.195Z,11.90
2023-01-10T14:07:51.915Z,14.67
2023-01-10T14:10:21.406Z,13.30
2023-01-10T14:12:49.135Z,15.80
2023-01-10T14:15:25.795Z,14.80
2023-01-10T14:17:58.406Z,8.37
2023-01-10T14:20:26.878Z,9.57
2023-01-10T14:22:59.304Z,9.20
2023-01-10T14:25:27.884Z,12.40
2023-01-10T14:27:56.272Z,14.10
2023-01-10T14:30:27.274Z,13.50
2023-01-10T14:32:57.795Z,18.07
2023-01-10T14:35:38.098Z,10.40
2023-01-10T14:38:07.667Z,11.83
2023-01-10T14:40:45.691Z,18.37
2023-01-10T14:43:16.188Z,9.03
2023-01-10T14:46:02.787Z,13.77
2023-01-10T14:48:32.078Z,11.27
2023-01-10T14:51:14.801Z,14.30
2023-01-10T14:53:42.411Z,14.30
2023-01-10T14:56:24.239Z,11.07
2023-01-10T14:58:51.896Z,9.73
2023-01-10T15:01:24.339Z,13.83
2023-01-10T15:03:52.670Z,13.90
2023-01-10T15:06:20.366Z,11.27
2023-01-10T15:08:56.026Z,9.00
2023-01-10T15:11:26.036Z,9.47
2023-01-10T15:13:55.671Z,17.87
2023-01-10T15:16:24.321Z,11.40
2023-01-10T15:18:52.077Z,11.67
2023-01-10T15:21:20.796Z,10.93
2023-01-10T15:23:48.839Z,13.90
2023-01-10T15:26:25.726Z,13.50
2023-01-10T15:29:07.639Z,15.67
2023-01-10T15:31:38.803Z,12.93
2023-01-10T15:34:10.809Z,11.30
2023-01-10T15:36:43.016Z,15.03
2023-01-10T15:39:24.381Z,9.73
2023-01-10T15:41:56.583Z,11.87
2023-01-10T15:44:29.990Z,11.10
2023-01-10T15:46:57.918Z,12.80
2023-01-10T15:49:25.901Z,11.20
2023-01-10T15:51:53.905Z,17.00
2023-01-10T15:54:21.670Z,15.37
2023-01-10T15:56:49.434Z,11.73
2023-01-10T15:59:24.150Z,12.43
2023-01-10T16:02:00.522Z,10.67
2023-01-10T16:04:28.560Z,13.50
2023-01-10T16:07:06.046Z,14.03
2023-01-10T16:09:33.918Z,14.57
2023-01-10T16:12:01.540Z,17.33
2023-01-10T16:14:29.171Z,18.13
2023-01-10T16:16:56.773Z,13.97
2023-01-10T16:19:24.423Z,12.43
2023-01-10T16:21:53.409Z,15.07
2023-01-10T16:24:22.474Z,22.77
2023-01-10T16:26:50.573Z,19.30
2023-01-10T16:29:18.905Z,13.00
2023-01-10T16:31:46.664Z,16.50
2023-01-10T16:34:14.350Z,17.77
2023-01-10T16:36:43.381Z,23.30
2023-01-10T16:39:15.831Z,21.87
2023-01-10T16:41:43.921Z,19.27
2023-01-10T16:44:11.468Z,23.37
2023-01-10T16:46:39.068Z,23.40
2023-01-10T16:49:06.549Z,17.33
2023-01-10T16:51:34.171Z,12.10
2023-01-10T16:54:01.778Z,12.63
2023-01-10T16:56:29.786Z,12.57
2023-01-10T16:58:57.746Z,11.67
2023-01-10T17:01:31.117Z,10.67
2023-01-10T17:03:59.063Z,14.87
2023-01-10T17:06:26.574Z,12.47
2023-01-10T17:08:54.205Z,11.83
2023-01-10T17:11:29.278Z,14.13
2023-01-10T17:13:56.968Z,13.37
2023-01-10T17:16:24.546Z,10.17
2023-01-10T17:18:52.085Z,18.97
2023-01-10T17:21:21.336Z,15.87
2023-01-10T17:23:49.355Z,10.13
2023-01-10T17:26:17.974Z,14.17
2023-01-10T17:28:45.956Z,18.50
2023-01-10T17:31:13.462Z,10.00
2023-01-10T17:33:41.045Z,16.80
2023-01-10T17:36:08.903Z,14.03
2023-01-10T17:38:38.058Z,19.90
2023-01-10T17:41:05.979Z,10.57
2023-01-10T17:43:33.651Z,13.90
2023-01-10T17:46:03.423Z,11.30
2023-01-10T17:48:31.371Z,10.17
2023-01-10T17:50:59.972Z,14.47
2023-01-10T17:53:28.605Z,6.80
2023-01-10T17:55:56.676Z,7.27
2023-01-10T17:58:24.678Z,10.63
2023-01-10T18:00:52.265Z,6.90
2023-01-10T18:03:20.390Z,11.07
2023-01-10T18:05:55.128Z,6.83
2023-01-10T18:08:23.343Z,5.83
2023-01-10T18:10:50.914Z,7.87
2023-01-10T18:13:19.489Z,11.17
2023-01-10T18:15:50.423Z,9.90
2023-01-10T18:18:17.940Z,8.73
2023-01-10T18:20:45.844Z,7.17
2023-01-10T18:23:14.388Z,8.23
2023-01-10T18:25:41.876Z,2.73
2023-01-10T18:28:09.419Z,6.10
2023-01-10T18:30:36.987Z,8.87
2023-01-10T18:33:04.689Z,6.60
2023-01-10T18:35:32.147Z,7.33
2023-01-10T18:37:59.710Z,12.27
2023-01-10T18:40:27.243Z,8.27
2023-01-10T18:42:54.991Z,8.23
2023-01-10T18:45:22.610Z,9.30
2023-01-10T18:47:54.221Z,8.17
2023-01-10T18:50:22.682Z,7.00
2023-01-10T18:52:50.434Z,6.10
2023-01-10T18:55:18.560Z,7.80
2023-01-10T18:57:46.195Z,8.47
2023-01-10T19:00:13.974Z,6.90
2023-01-10T19:02:41.513Z,9.53
2023-01-10T19:05:09.194Z,8.97
2023-01-10T19:07:37.189Z,4.93
2023-01-10T19:10:04.957Z,6.13
2023-01-10T19:12:32.578Z,5.33
2023-01-10T19:15:00.178Z,4.97
2023-01-10T19:17:29.467Z,6.40
2023-01-10T19:19:57.256Z,4.93
2023-01-10T19:22:25.086Z,4.07
2023-01-10T19:24:52.865Z,7.63
2023-01-10T19:27:20.374Z,4.83
2023-01-10T19:29:48.082Z,4.77
2023-01-10T19:32:15.607Z,4.60
2023-01-10T19:34:46.163Z,3.23
2023-01-10T19:37:13.963Z,2.60
2023-01-10T19:39:41.526Z,5.70
2023-01-10T19:42:09.214Z,5.13
2023-01-10T19:44:39.514Z,4.53
2023-01-10T19:47:07.091Z,6.10
2023-01-10T19:49:34.627Z,3.67
2023-01-10T19:52:02.558Z,4.50
2023-01-10T19:54:30.099Z,2.53
2023-01-10T19:56:57.827Z,3.67
2023-01-10T19:59:25.423Z,3.33
2023-01-10T20:01:53.174Z,3.57
2023-01-10T20:04:20.853Z,2.93
2023-01-10T20:06:48.703Z,4.93
2023-01-10T20:09:16.305Z,3.90
2023-01-10T20:11:43.912Z,6.13
2023-01-10T20:14:12.736Z,6.10
2023-01-10T20:16:40.275Z,3.00
2023-01-10T20:19:08.081Z,3.77
2023-01-10T20:21:35.953Z,4.67
2023-01-10T20:24:04.081Z,2.83
2023-01-10T20:26:31.582Z,6.30
2023-01-10T20:29:02.955Z,3.53
2023-01-10T20:31:31.383Z,3.43
2023-01-10T20:33:59.064Z,3.40
2023-01-10T20:36:26.953Z,4.40
2023-01-10T20:38:54.738Z,3.30
2023-01-10T20:41:26.542Z,3.43
2023-01-10T20:43:54.898Z,3.43
2023-01-10T20:46:26.630Z,2.23
2023-01-10T20:48:55.242Z,2.97
2023-01-10T20:51:24.348Z,3.17
2023-01-10T20:53:52.060Z,4.83
2023-01-10T20:56:24.182Z,3.80
2023-01-10T20:58:57.748Z,3.73
2023-01-10T21:01:34.018Z,3.17
2023-01-10T21:04:03.050Z,3.40
2023-01-10T21:06:30.929Z,4.17
2023-01-10T21:08:58.525Z,4.47
2023-01-10T21:11:26.075Z,4.27
2023-01-10T21:13:53.680Z,3.27
2023-01-10T21:16:21.391Z,3.47
2023-01-10T21:18:49.049Z,4.07
2023-01-10T21:21:17.963Z,3.53
2023-01-10T21:23:45.700Z,2.03
2023-01-10T21:26:15.145Z,3.57
2023-01-10T21:28:43.776Z,2.47
2023-01-10T21:31:11.418Z,4.67
2023-01-10T21:33:39.119Z,3.67
2023-01-10T21:36:06.868Z,3.60
2023-01-10T21:38:34.678Z,3.13
2023-01-10T21:41:16.685Z,3.80
2023-01-10T21:43:45.228Z,1.37
2023-01-10T21:46:15.369Z,2.87
2023-01-10T21:48:43.669Z,2.63
2023-01-10T21:51:13.728Z,7.40
2023-01-10T21:53:41.551Z,1.70
2023-01-10T21:56:10.450Z,1.40
2023-01-10T21:58:38.015Z,2.43
2023-01-10T22:01:05.607Z,2.40
2023-01-10T22:03:33.132Z,2.93
2023-01-10T22:06:01.838Z,2.63
2023-01-10T22:08:29.399Z,2.30
2023-01-10T22:10:56.919Z,2.30
2023-01-10T22:13:27.291Z,2.60
2023-01-10T22:16:01.696Z,4.17
2023-01-10T22:18:30.775Z,2.13
2023-01-10T22:20:58.748Z,4.57
2023-01-10T22:23:28.410Z,3.73
2023-01-10T22:26:06.003Z,2.33
2023-01-10T22:28:34.089Z,3.00
2023-01-10T22:31:01.820Z,3.23
2023-01-10T22:33:30.395Z,2.23
2023-01-10T22:35:57.920Z,3.20
2023-01-10T22:38:25.548Z,2.30
2023-01-10T22:40:53.042Z,4.07
2023-01-10T22:43:20.645Z,4.17
2023-01-10T22:45:48.116Z,1.90
2023-01-10T22:48:15.744Z,1.77
2023-01-10T22:50:48.024Z,2.63
2023-01-10T22:53:15.568Z,2.40
2023-01-10T22:55:43.077Z,2.10
2023-01-10T22:58:10.678Z,2.43
2023-01-10T23:00:38.207Z,2.00
2023-01-10T23:03:05.772Z,2.87
2023-01-10T23:05:33.291Z,3.60
2023-01-10T23:08:00.833Z,3.37
2023-01-10T23:10:30.660Z,2.37
2023-01-10T23:12:58.591Z,3.43
2023-01-10T23:15:26.233Z,2.43
2023-01-10T23:17:53.739Z,1.83
2023-01-10T23:20:21.289Z,1.40
2023-01-10T23:22:48.828Z,3.70
2023-01-10T23:25:16.431Z,1.60
2023-01-10T23:27:43.933Z,3.27
2023-01-10T23:30:11.763Z,3.30
2023-01-10T23:32:39.267Z,2.80
2023-01-10T23:35:06.913Z,1.63
2023-01-10T23:37:34.425Z,2.07
2023-01-10T23:40:01.963Z,1.20
2023-01-10T23:42:29.532Z,3.30
2023-01-10T23:44:57.002Z,2.73
2023-01-10T23:47:24.544Z,1.20
2023-01-10T23:49:52.055Z,1.67
2023-01-10T23:52:19.601Z,2.37
2023-01-10T23:54:47.088Z,2.23
2023-01-10T23:57:14.664Z,1.50
2023-01-10T23:59:42.160Z,3.63
